»·PEaware :: N71PK KVNY-KPRC

N71PK :: KVNY-KPRC

FLIGHT INFORMATION

Flight Status: Arrived
Operator: Privately registered:
United States
More flights under this callsign
Pilot: Peter K. (32806)
Aircraft: CIRRUS SR-22 TURBO
(S22T)
More flights by this aircraft type
Origin: KVNY Van Nuys
United States
Destination: KPRC Love
United States
More flights between these airports :: More routes between these airports
Route: NUAL1 PMD HEC V12 DRK
File this flight plan on PilotEdge
Remarks:
Altitude:
(Current/Filed)
15,000ft
Speed:
(Current/Filed)
180kts
Departed: 04-Feb-21 11:16 AM
Arrived: 04-Feb-21 12:52 PM
Distance/Time
Traveled:
301nm/1:36
Distance/Time
To Go:
Arrived

Flight Plot

Page will automatically refresh every two minutes.

Flight plan parsing failed; only flown route is shown


Map Options




Map Legend


Flown Route
Filed Route
Departure Airport
Arrival Airport
Navaid (VOR, NDB)
Fix

Horizontal Profiles

Position Reports

Time Latitude Longitude Heading Altitude Ground
Speed
04-Feb-21 10:49 34.206576 -118.492412 83 804ft 0kts
04-Feb-21 10:50 34.206576 -118.492412 83 804ft 0kts
04-Feb-21 10:51 34.206576 -118.492412 83 804ft 0kts
04-Feb-21 10:52 34.206576 -118.492412 83 804ft 0kts
04-Feb-21 10:53 34.206576 -118.492412 83 804ft 0kts
04-Feb-21 10:54 34.206576 -118.492412 83 804ft 0kts
04-Feb-21 10:55 34.206576 -118.492412 83 804ft 0kts
04-Feb-21 10:56 34.206576 -118.492412 83 804ft 0kts
04-Feb-21 10:57 34.206576 -118.492412 83 804ft 0kts
04-Feb-21 10:58 34.206576 -118.492412 83 804ft 0kts
04-Feb-21 10:59 34.206576 -118.492412 83 804ft 0kts
04-Feb-21 11:00 34.206576 -118.492412 83 804ft 0kts
04-Feb-21 11:01 34.206576 -118.492412 83 804ft 0kts
04-Feb-21 11:02 34.206576 -118.492412 83 804ft 0kts
04-Feb-21 11:03 34.206576 -118.492412 83 804ft 0kts
04-Feb-21 11:03 34.206576 -118.492412 83 804ft 0kts
04-Feb-21 11:04 34.206576 -118.492412 83 804ft 0kts
04-Feb-21 11:06 34.206576 -118.492412 83 804ft 0kts
04-Feb-21 11:06 34.206749 -118.491294 19 804ft 9kts
04-Feb-21 11:07 34.210013 -118.491549 355 804ft 15kts
04-Feb-21 11:08 34.213036 -118.491849 356 804ft 17kts
04-Feb-21 11:09 34.213036 -118.491849 356 804ft 17kts
04-Feb-21 11:10 34.213036 -118.491849 356 804ft 17kts
04-Feb-21 11:11 34.216498 -118.492258 357 804ft 18kts
04-Feb-21 11:12 34.218662 -118.492202 57 804ft 0kts
04-Feb-21 11:13 34.218662 -118.492202 57 804ft 0kts
04-Feb-21 11:14 34.218663 -118.492200 56 804ft 0kts
04-Feb-21 11:15 34.213619 -118.490700 174 840ft 91kts
04-Feb-21 11:16 34.186281 -118.488537 170 1985ft 101kts
04-Feb-21 11:17 34.166527 -118.463721 125 3215ft 102kts
04-Feb-21 11:18 34.179259 -118.447489 352 4406ft 93kts
04-Feb-21 11:19 34.204576 -118.452649 354 5582ft 92kts
04-Feb-21 11:20 34.230253 -118.453843 358 6691ft 95kts
04-Feb-21 11:21 34.252799 -118.454786 357 7541ft 96kts
04-Feb-21 11:22 34.276516 -118.455850 356 8314ft 96kts
04-Feb-21 11:23 34.303571 -118.456999 354 9162ft 97kts
04-Feb-21 11:24 34.332210 -118.458260 353 9869ft 103kts
04-Feb-21 11:25 34.361390 -118.459517 352 10481ft 105kts
04-Feb-21 11:26 34.388646 -118.447403 38 11055ft 122kts
04-Feb-21 11:27 34.410816 -118.415320 41 11598ft 126kts
04-Feb-21 11:28 34.433883 -118.379655 43 12392ft 145kts
04-Feb-21 11:29 34.459270 -118.339246 43 13638ft 153kts
04-Feb-21 11:30 34.485262 -118.297780 42 14865ft 157kts
04-Feb-21 11:31 34.515900 -118.249233 45 15073ft 201kts
04-Feb-21 11:32 34.550750 -118.193161 45 15082ft 211kts
04-Feb-21 11:33 34.586451 -118.135893 45 15083ft 213kts
04-Feb-21 11:34 34.622211 -118.078519 45 15081ft 213kts
04-Feb-21 11:35 34.637538 -118.006962 77 15079ft 220kts
04-Feb-21 11:36 34.645626 -117.933806 77 15079ft 218kts
04-Feb-21 11:37 34.653556 -117.860918 77 15077ft 218kts
04-Feb-21 11:38 34.661487 -117.787627 77 15078ft 218kts
04-Feb-21 11:39 34.669344 -117.714576 77 15079ft 218kts
04-Feb-21 11:40 34.677224 -117.640961 77 15009ft 222kts
04-Feb-21 11:41 34.685064 -117.567104 77 15001ft 219kts
04-Feb-21 11:42 34.692826 -117.493680 77 15001ft 219kts
04-Feb-21 11:43 34.700541 -117.420276 77 15002ft 219kts
04-Feb-21 11:44 34.708230 -117.346657 78 15001ft 219kts
04-Feb-21 11:45 34.715860 -117.273207 78 14997ft 218kts
04-Feb-21 11:46 34.723415 -117.200021 78 14998ft 218kts
04-Feb-21 11:47 34.730944 -117.126645 78 14998ft 218kts
04-Feb-21 11:48 34.738412 -117.053335 77 14998ft 219kts
04-Feb-21 11:49 34.745925 -116.979255 77 14999ft 222kts
04-Feb-21 11:50 34.753478 -116.904326 77 14999ft 224kts
04-Feb-21 11:51 34.761090 -116.828332 77 15000ft 227kts
04-Feb-21 11:52 34.768703 -116.751779 77 15000ft 228kts
04-Feb-21 11:53 34.776274 -116.675103 77 15001ft 228kts
04-Feb-21 11:54 34.783782 -116.598662 77 15001ft 228kts
04-Feb-21 11:55 34.791285 -116.521704 77 15002ft 228kts
04-Feb-21 11:56 34.796727 -116.444625 85 15002ft 230kts
04-Feb-21 11:57 34.796246 -116.365569 86 15006ft 235kts
04-Feb-21 11:58 34.795548 -116.285790 86 15008ft 235kts
04-Feb-21 11:59 34.794814 -116.206386 86 15018ft 235kts
04-Feb-21 12:00 34.794026 -116.126650 86 15025ft 235kts
04-Feb-21 12:01 34.793187 -116.047018 86 15025ft 236kts
04-Feb-21 12:02 34.792297 -115.967244 86 15026ft 236kts
04-Feb-21 12:03 34.791347 -115.887239 86 15027ft 236kts
04-Feb-21 12:04 34.790352 -115.807326 86 15027ft 236kts
04-Feb-21 12:05 34.789302 -115.727487 86 15028ft 236kts
04-Feb-21 12:06 34.788200 -115.647493 86 15019ft 237kts
04-Feb-21 12:07 34.787039 -115.567178 86 14986ft 237kts
04-Feb-21 12:08 34.785821 -115.486788 86 14953ft 238kts
04-Feb-21 12:09 34.784554 -115.406257 86 14929ft 238kts
04-Feb-21 12:10 34.783242 -115.325812 87 14923ft 237kts
04-Feb-21 12:11 34.781869 -115.245735 87 14923ft 236kts
04-Feb-21 12:12 34.780445 -115.165809 87 14924ft 236kts
04-Feb-21 12:13 34.778963 -115.086218 87 15051ft 233kts
04-Feb-21 12:14 34.777453 -115.006546 86 15053ft 236kts
04-Feb-21 12:15 34.775875 -114.926390 86 15054ft 237kts
04-Feb-21 12:16 34.774254 -114.846083 86 15054ft 237kts
04-Feb-21 12:17 34.772557 -114.765586 86 15055ft 237kts
04-Feb-21 12:18 34.770810 -114.685243 86 15055ft 238kts
04-Feb-21 12:19 34.769010 -114.604678 86 15056ft 238kts
04-Feb-21 12:20 34.767157 -114.524192 86 15056ft 238kts
04-Feb-21 12:21 34.765254 -114.443674 86 15053ft 238kts
04-Feb-21 12:22 34.763307 -114.363016 86 15042ft 238kts
04-Feb-21 12:23 34.761297 -114.282437 87 15023ft 238kts
04-Feb-21 12:24 34.759253 -114.202168 87 15016ft 237kts
04-Feb-21 12:25 34.757147 -114.121910 87 15031ft 236kts
04-Feb-21 12:26 34.755004 -114.041852 87 15039ft 237kts
04-Feb-21 12:27 34.752788 -113.961425 87 15043ft 237kts
04-Feb-21 12:28 34.750527 -113.881070 87 15051ft 237kts
04-Feb-21 12:29 34.748207 -113.800418 87 15059ft 237kts
04-Feb-21 12:30 34.745835 -113.720050 87 15064ft 237kts
04-Feb-21 12:31 34.743418 -113.639723 87 15065ft 238kts
04-Feb-21 12:33 34.740915 -113.558414 87 15066ft 238kts
04-Feb-21 12:34 34.738386 -113.477907 87 15066ft 238kts
04-Feb-21 12:35 34.735793 -113.397191 87 15067ft 238kts
04-Feb-21 12:36 34.733170 -113.316819 88 15060ft 238kts
04-Feb-21 12:37 34.730470 -113.236276 88 15055ft 237kts
04-Feb-21 12:38 34.727726 -113.155693 88 15040ft 238kts
04-Feb-21 12:39 34.724902 -113.074708 88 15025ft 238kts
04-Feb-21 12:40 34.722031 -112.993339 88 14494ft 235kts
04-Feb-21 12:41 34.709873 -112.918848 119 13581ft 220kts
04-Feb-21 12:42 34.680807 -112.855417 120 12676ft 209kts
04-Feb-21 12:43 34.653231 -112.795396 119 11778ft 199kts
04-Feb-21 12:44 34.626541 -112.737664 119 10877ft 194kts
04-Feb-21 12:45 34.614765 -112.676248 89 10041ft 186kts
04-Feb-21 12:46 34.613435 -112.618628 90 10018ft 165kts
04-Feb-21 12:47 34.609206 -112.560482 93 9566ft 173kts
04-Feb-21 12:48 34.605398 -112.511443 101 8930ft 138kts
04-Feb-21 12:48 34.603432 -112.472485 52 6907ft 139kts
04-Feb-21 12:50 34.631668 -112.443606 35 5575ft 104kts
04-Feb-21 12:51 34.650972 -112.423244 39 5006ft 69kts
04-Feb-21 12:51 34.657268 -112.416329 90 4972ft 22kts
04-Feb-21 12:53 34.656874 -112.415537 123 4972ft 0kts
04-Feb-21 12:53 34.656278 -112.415846 221 4976ft 3kts
04-Feb-21 12:54 34.653940 -112.418324 221 4992ft 17kts
04-Feb-21 12:55 34.649608 -112.422908 220 5013ft 21kts
04-Feb-21 12:56 34.646723 -112.424413 312 5023ft 0kts

Navigation Log

Ident Type
Flight plan parsing failed, navigation log unavailable